Time;durP1;ratioP1;P1;durP2;ratioP2;P2;SDS_P1;SDS_P2;PMS_P1;PMS_P2;Temp;Humidity;BMP_temperature;BMP_pressure;BME280_temperature;BME280_humidity;BME280_pressure;Samples;Min_cycle;Max_cycle;Signal;HPM_P1;HPM_P2
2022/05/14 00:02:12;;;;;;;;;;;;;;;23.88;64.83;96808.41;611761;232;67113;-69
2022/05/14 00:04:39;;;;;;;;;;;;;;;23.88;64.82;96808.41;611848;232;67136;-68
2022/05/14 00:07:07;;;;;;;;;;;;;;;23.87;64.81;96809.48;611817;232;65368;-68
2022/05/14 00:09:34;;;;;;;;;;;;;;;23.87;64.88;96809.48;611803;232;67075;-68
2022/05/14 00:14:47;;;;;;;;;;;;;;;23.87;64.92;96806.80;611819;232;65425;-68
2022/05/14 00:17:14;;;;;;;;;;;;;;;23.86;64.88;96800.64;611820;232;67036;-68
2022/05/14 00:19:42;;;;;;;;;;;;;;;23.87;64.89;96804.94;611856;232;64557;-69
2022/05/14 00:22:09;;;;;;;;;;;;;;;23.85;64.99;96804.42;611827;232;62909;-68
2022/05/14 00:24:37;;;;;;;;;;;;;;;23.86;64.94;96792.59;611779;232;64567;-68
2022/05/14 00:27:04;;;;;;;;;;;;;;;23.86;64.96;96792.59;611807;232;64851;-68
2022/05/14 00:29:32;;;;;;;;;;;;;;;23.86;64.86;96794.48;611792;232;65403;-68
2022/05/14 00:32:00;;;;;;;;;;;;;;;23.86;65.00;96797.16;611870;232;64630;-69
2022/05/14 00:34:28;;;;;;;;;;;;;;;23.86;64.98;96787.22;611763;232;64795;-68
2022/05/14 00:36:55;;;;;;;;;;;;;;;23.85;65.05;96782.16;611793;232;63170;-74
2022/05/14 00:39:23;;;;;;;;;;;;;;;23.85;64.91;96782.95;611800;232;64833;-75
2022/05/14 00:41:50;;;;;;;;;;;;;;;23.86;64.91;96781.06;611829;232;64800;-75
2022/05/14 00:44:18;;;;;;;;;;;;;;;23.86;64.99;96776.48;611874;232;63169;-75
2022/05/14 00:46:48;;;;;;;;;;;;;;;23.85;64.90;96774.11;611862;232;66980;-75
2022/05/14 00:49:17;;;;;;;;;;;;;;;23.85;64.98;96774.11;611816;232;66671;-75
2022/05/14 00:51:45;;;;;;;;;;;;;;;23.85;64.99;96774.11;611963;230;60100;-74
2022/05/14 00:54:14;;;;;;;;;;;;;;;23.86;65.04;96773.02;611796;232;66401;-76
2022/05/14 00:56:43;;;;;;;;;;;;;;;23.85;65.07;96772.22;611801;230;67451;-76
2022/05/14 00:59:13;;;;;;;;;;;;;;;23.85;64.96;96776.80;611799;232;63073;-76
2022/05/14 01:01:41;;;;;;;;;;;;;;;23.85;65.03;96779.48;611819;232;66460;-76
2022/05/14 01:04:10;;;;;;;;;;;;;;;23.85;64.96;96779.48;611739;229;66707;-76
2022/05/14 01:06:39;;;;;;;;;;;;;;;23.85;65.01;96779.48;611814;232;65194;-76
2022/05/14 01:09:07;;;;;;;;;;;;;;;23.84;65.03;96789.39;611843;231;64525;-76
2022/05/14 01:11:37;;;;;;;;;;;;;;;23.84;65.08;96785.92;611899;232;67132;-76
2022/05/14 01:14:05;;;;;;;;;;;;;;;23.83;65.10;96790.50;611814;232;65112;-76
2022/05/14 01:16:34;;;;;;;;;;;;;;;23.82;65.11;96780.08;611821;232;67002;-76
2022/05/14 01:19:02;;;;;;;;;;;;;;;23.82;65.13;96783.55;611762;232;65342;-70
2022/05/14 01:21:41;;;;;;;;;;;;;;;23.82;65.06;96790.81;611810;232;65411;-70
2022/05/14 01:26:56;;;;;;;;;;;;;;;23.83;65.11;96782.45;611829;232;64329;-68
2022/05/14 01:29:26;;;;;;;;;;;;;;;23.82;65.04;96775.50;611784;232;65324;-68
2022/05/14 01:31:56;;;;;;;;;;;;;;;23.82;65.00;96775.50;611834;230;43774;-69
2022/05/14 01:34:25;;;;;;;;;;;;;;;23.83;65.28;96782.45;611795;232;67132;-69
2022/05/14 01:36:53;;;;;;;;;;;;;;;23.82;65.18;96774.70;611512;232;65284;-68
2022/05/14 01:39:20;;;;;;;;;;;;;;;23.82;65.13;96774.70;611826;232;66704;-68
2022/05/14 01:41:48;;;;;;;;;;;;;;;23.82;65.11;96774.70;611860;232;64584;-68
2022/05/14 01:44:17;;;;;;;;;;;;;;;23.81;65.19;96773.09;611832;232;66409;-68
2022/05/14 01:46:45;;;;;;;;;;;;;;;23.82;65.22;96774.70;611846;232;65184;-68
2022/05/14 01:49:13;;;;;;;;;;;;;;;23.80;65.21;96766.15;611815;232;67317;-69
2022/05/14 01:51:41;;;;;;;;;;;;;;;23.81;65.17;96765.84;611855;232;65119;-68
2022/05/14 01:54:10;;;;;;;;;;;;;;;23.81;65.16;96757.00;611831;232;64482;-69
2022/05/14 01:56:37;;;;;;;;;;;;;;;23.81;65.09;96759.68;611812;232;67340;-68
2022/05/14 01:59:06;;;;;;;;;;;;;;;23.81;65.15;96762.36;611858;232;62594;-69
2022/05/14 02:01:35;;;;;;;;;;;;;;;23.80;65.29;96755.41;611809;232;66963;-68
2022/05/14 02:04:04;;;;;;;;;;;;;;;23.80;65.24;96755.41;611863;232;66516;-69
2022/05/14 02:06:32;;;;;;;;;;;;;;;23.81;65.27;96759.68;611815;232;66068;-69
2022/05/14 02:09:02;;;;;;;;;;;;;;;23.81;65.21;96754.31;611821;232;64253;-74
2022/05/14 02:11:29;;;;;;;;;;;;;;;23.81;65.17;96751.63;611883;232;66652;-75
2022/05/14 02:13:59;;;;;;;;;;;;;;;23.81;65.24;96751.63;611747;232;42739;-74
2022/05/14 02:16:26;;;;;;;;;;;;;;;23.80;65.26;96745.47;611870;232;66758;-74
2022/05/14 02:18:54;;;;;;;;;;;;;;;23.80;65.22;96744.69;611904;232;67543;-75
2022/05/14 02:21:24;;;;;;;;;;;;;;;23.79;65.17;96746.58;611830;232;63175;-75
2022/05/14 02:23:52;;;;;;;;;;;;;;;23.79;65.17;96748.44;611844;231;66971;-75
2022/05/14 02:26:19;;;;;;;;;;;;;;;23.78;65.18;96750.33;611865;232;66318;-75
2022/05/14 02:28:47;;;;;;;;;;;;;;;23.79;65.28;96745.76;611862;232;63117;-74
2022/05/14 02:31:15;;;;;;;;;;;;;;;23.78;65.26;96747.65;611889;232;64554;-75
2022/05/14 02:33:43;;;;;;;;;;;;;;;23.79;65.40;96753.80;606317;232;68350;-74
2022/05/14 02:36:10;;;;;;;;;;;;;;;23.78;65.21;96757.59;611863;232;62974;-74
2022/05/14 02:38:39;;;;;;;;;;;;;;;23.78;65.25;96758.38;611887;232;66876;-75
2022/05/14 02:41:06;;;;;;;;;;;;;;;23.78;65.27;96752.22;611860;232;66689;-74
2022/05/14 02:43:35;;;;;;;;;;;;;;;23.77;65.43;96746.06;611926;232;63396;-75
2022/05/14 02:46:03;;;;;;;;;;;;;;;23.77;65.33;96751.44;611920;232;66806;-74
2022/05/14 02:48:31;;;;;;;;;;;;;;;23.78;65.39;96750.33;611828;232;64772;-74
2022/05/14 02:50:59;;;;;;;;;;;;;;;23.78;65.42;96744.97;611848;229;65879;-75
2022/05/14 02:53:27;;;;;;;;;;;;;;;23.78;65.21;96752.22;611863;232;66696;-74
2022/05/14 02:55:55;;;;;;;;;;;;;;;23.77;65.52;96750.64;611871;232;64510;-74
2022/05/14 03:01:09;;;;;;;;;;;;;;;23.76;65.36;96749.03;611875;232;67286;-75
2022/05/14 03:03:37;;;;;;;;;;;;;;;23.76;65.39;96757.88;611831;229;64986;-74
2022/05/14 03:06:05;;;;;;;;;;;;;;;23.76;65.39;96760.55;611869;232;65324;-74
2022/05/14 03:08:33;;;;;;;;;;;;;;;23.76;65.44;96757.88;611829;232;66938;-74
2022/05/14 03:11:00;;;;;;;;;;;;;;;23.77;65.27;96756.01;611907;232;66820;-75
2022/05/14 03:13:30;;;;;;;;;;;;;;;23.75;65.39;96764.34;611817;232;62991;-74
2022/05/14 03:15:57;;;;;;;;;;;;;;;23.76;65.77;96760.55;611884;232;66580;-74
2022/05/14 03:18:25;;;;;;;;;;;;;;;23.73;65.46;96754.99;611890;232;64577;-74
2022/05/14 03:20:53;;;;;;;;;;;;;;;23.75;65.46;96761.66;611904;232;65002;-74
2022/05/14 03:23:20;;;;;;;;;;;;;;;23.74;65.40;96765.44;611842;232;66757;-74
2022/05/14 03:25:48;;;;;;;;;;;;;;;23.75;65.47;96758.98;611861;232;66761;-75
2022/05/14 03:28:16;;;;;;;;;;;;;;;23.75;65.40;96760.87;611870;232;62922;-74
2022/05/14 03:30:44;;;;;;;;;;;;;;;23.75;65.39;96761.66;611849;232;66856;-74
2022/05/14 03:33:11;;;;;;;;;;;;;;;23.74;65.37;96762.77;611830;232;64558;-74
2022/05/14 03:35:39;;;;;;;;;;;;;;;23.75;65.28;96761.66;611846;232;65108;-74
2022/05/14 03:38:06;;;;;;;;;;;;;;;23.74;65.27;96765.44;611895;232;66789;-74
2022/05/14 03:40:34;;;;;;;;;;;;;;;23.75;65.25;96768.92;611842;232;66383;-74
2022/05/14 03:43:02;;;;;;;;;;;;;;;23.73;65.31;96766.52;611858;232;63272;-69
2022/05/14 03:45:29;;;;;;;;;;;;;;;23.74;65.47;96770.02;611835;232;64364;-69
2022/05/14 03:47:57;;;;;;;;;;;;;;;23.74;65.33;96775.38;611798;232;65897;-74
2022/05/14 03:50:24;;;;;;;;;;;;;;;23.74;65.38;96780.75;611902;232;65258;-74
2022/05/14 03:52:52;;;;;;;;;;;;;;;23.72;65.51;96772.98;611811;232;66800;-75
2022/05/14 03:55:19;;;;;;;;;;;;;;;23.74;66.47;96778.06;611849;232;64544;-74
2022/05/14 03:57:47;;;;;;;;;;;;;;;23.72;65.42;96783.72;611865;232;63076;-75
2022/05/14 04:00:16;;;;;;;;;;;;;;;23.73;65.41;96787.19;611815;232;66789;-74
2022/05/14 04:02:44;;;;;;;;;;;;;;;23.73;65.42;96793.34;612116;229;64991;-74
2022/05/14 04:05:11;;;;;;;;;;;;;;;23.73;65.41;96803.29;611862;232;65170;-74
2022/05/14 04:07:39;;;;;;;;;;;;;;;23.73;65.92;96803.29;611819;232;67069;-74
2022/05/14 04:10:08;;;;;;;;;;;;;;;23.72;65.75;96809.75;611831;232;66932;-74
2022/05/14 04:12:35;;;;;;;;;;;;;;;23.72;65.39;96805.18;611835;232;65577;-74
2022/05/14 04:15:03;;;;;;;;;;;;;;;23.72;65.39;96810.55;611884;232;66947;-74
2022/05/14 04:17:31;;;;;;;;;;;;;;;23.73;65.41;96814.02;611822;232;66568;-74
2022/05/14 04:19:59;;;;;;;;;;;;;;;23.72;65.46;96812.44;611816;232;63077;-69
2022/05/14 04:22:27;;;;;;;;;;;;;;;23.72;65.42;96813.23;611866;232;64721;-69
2022/05/14 04:24:54;;;;;;;;;;;;;;;23.71;65.57;96811.64;611800;232;66660;-68
2022/05/14 04:27:22;;;;;;;;;;;;;;;23.70;65.48;96821.53;611846;232;65123;-69
2022/05/14 04:29:50;;;;;;;;;;;;;;;23.70;65.78;96821.53;611901;232;64607;-69
2022/05/14 04:32:18;;;;;;;;;;;;;;;23.70;65.62;96831.47;611863;232;67604;-69
2022/05/14 04:34:46;;;;;;;;;;;;;;;23.70;65.45;96826.89;611792;232;65336;-69
2022/05/14 04:37:13;;;;;;;;;;;;;;;23.71;65.52;96835.80;611819;232;64582;-69
2022/05/14 04:39:41;;;;;;;;;;;;;;;23.70;65.42;96837.63;611837;232;64477;-68
2022/05/14 04:42:10;;;;;;;;;;;;;;;23.70;66.43;96840.30;611878;232;65298;-69
2022/05/14 04:44:38;;;;;;;;;;;;;;;23.69;65.59;96838.73;611845;232;64149;-69
2022/05/14 04:47:07;;;;;;;;;;;;;;;23.69;65.62;96841.41;611697;232;67156;-69
2022/05/14 04:49:36;;;;;;;;;;;;;;;23.69;65.63;96840.62;611805;232;63108;-68
2022/05/14 04:52:05;;;;;;;;;;;;;;;23.70;65.70;96842.20;611283;232;67265;-68
2022/05/14 04:54:33;;;;;;;;;;;;;;;23.68;65.58;96841.69;611647;232;66603;-68
2022/05/14 04:57:01;;;;;;;;;;;;;;;23.69;66.26;96845.98;611851;232;62714;-69
2022/05/14 04:59:29;;;;;;;;;;;;;;;23.68;65.88;96850.55;611720;232;66965;-69
2022/05/14 05:04:42;;;;;;;;;;;;;;;23.68;65.76;96858.61;610683;230;65189;-68
2022/05/14 05:07:10;;;;;;;;;;;;;;;23.68;66.28;96855.92;610667;232;64252;-68
2022/05/14 05:09:38;;;;;;;;;;;;;;;23.67;66.67;96837.42;610977;232;66510;-68
2022/05/14 05:12:05;;;;;;;;;;;;;;;23.65;66.46;96840.41;611723;232;65116;-68
2022/05/14 05:14:33;;;;;;;;;;;;;;;23.65;66.50;96840.41;611889;232;66491;-68
2022/05/14 05:17:01;;;;;;;;;;;;;;;23.66;68.42;96843.89;611853;232;66723;-68
2022/05/14 05:19:30;;;;;;;;;;;;;;;23.65;65.97;96842.27;611917;232;65082;-73
2022/05/14 05:21:58;;;;;;;;;;;;;;;23.64;67.27;96838.80;611922;232;64299;-74
2022/05/14 05:24:25;;;;;;;;;;;;;;;23.64;67.35;96828.07;611858;232;64603;-74
2022/05/14 05:26:53;;;;;;;;;;;;;;;23.63;65.79;96815.76;611878;232;62888;-74
2022/05/14 05:29:20;;;;;;;;;;;;;;;23.63;66.99;96807.70;611865;232;67059;-74
2022/05/14 05:31:48;;;;;;;;;;;;;;;23.62;65.51;96806.09;611898;232;64650;-74
2022/05/14 05:34:15;;;;;;;;;;;;;;;23.60;66.71;96805.61;611907;232;63255;-74
2022/05/14 05:36:43;;;;;;;;;;;;;;;23.63;66.46;96801.55;611895;229;66751;-74
2022/05/14 05:39:10;;;;;;;;;;;;;;;23.62;66.77;96792.69;611885;232;66646;-74
2022/05/14 05:41:38;;;;;;;;;;;;;;;23.61;66.04;96785.73;611866;232;65575;-74
2022/05/14 05:44:06;;;;;;;;;;;;;;;23.62;65.57;96784.64;611947;232;65720;-74
2022/05/14 05:46:33;;;;;;;;;;;;;;;23.61;65.59;96801.05;611915;232;64558;-74
2022/05/14 05:49:01;;;;;;;;;;;;;;;23.61;66.69;96801.83;611901;232;63344;-74
2022/05/14 05:51:28;;;;;;;;;;;;;;;23.60;65.35;96810.98;611881;232;64569;-74
2022/05/14 05:56:47;;;;;;;;;;;;;;;23.63;66.46;96836.43;611904;232;65240;-74
2022/05/14 05:59:16;;;;;;;;;;;;;;;23.62;65.86;96846.34;611892;232;66781;-74
2022/05/14 06:01:44;;;;;;;;;;;;;;;23.60;65.77;96853.91;611931;232;66771;-74
2022/05/14 06:04:11;;;;;;;;;;;;;;;23.60;66.46;96874.54;611841;232;65359;-74
2022/05/14 06:06:41;;;;;;;;;;;;;;;23.60;66.85;96877.22;611862;232;66713;-74
2022/05/14 06:09:09;;;;;;;;;;;;;;;23.58;66.07;96877.53;611865;232;66802;-73
2022/05/14 06:11:36;;;;;;;;;;;;;;;23.59;65.95;96872.95;611848;232;62988;-74
2022/05/14 06:14:04;;;;;;;;;;;;;;;23.59;67.14;96879.11;611859;232;64653;-74
2022/05/14 06:16:31;;;;;;;;;;;;;;;23.59;66.48;96884.48;611848;232;65122;-74
2022/05/14 06:18:59;;;;;;;;;;;;;;;23.60;67.23;96891.45;611836;232;65378;-74
2022/05/14 06:21:27;;;;;;;;;;;;;;;23.60;67.72;96888.77;611865;232;65857;-74
2022/05/14 06:23:55;;;;;;;;;;;;;;;23.62;68.23;96888.47;611808;232;66708;-73
2022/05/14 06:26:23;;;;;;;;;;;;;;;23.62;66.94;96897.30;611843;232;65211;-74
2022/05/14 06:28:50;;;;;;;;;;;;;;;23.62;66.44;96899.98;611880;232;64917;-74
2022/05/14 06:31:18;;;;;;;;;;;;;;;23.63;66.50;96908.86;611800;232;64915;-74
2022/05/14 06:33:46;;;;;;;;;;;;;;;23.64;67.86;96921.17;611899;232;65095;-74
2022/05/14 06:36:14;;;;;;;;;;;;;;;23.64;66.83;96913.92;611839;232;66765;-74
2022/05/14 06:38:42;;;;;;;;;;;;;;;23.65;66.97;96896.75;611854;232;66899;-73
2022/05/14 06:41:11;;;;;;;;;;;;;;;23.64;66.77;96902.39;611863;232;65364;-74
2022/05/14 06:43:39;;;;;;;;;;;;;;;23.63;66.54;96896.23;611860;232;67249;-74
2022/05/14 06:46:06;;;;;;;;;;;;;;;23.65;68.57;96904.80;611838;232;66831;-74
2022/05/14 06:48:34;;;;;;;;;;;;;;;23.66;68.27;96916.33;611850;232;65488;-74
2022/05/14 06:51:03;;;;;;;;;;;;;;;23.67;69.23;96925.95;611851;232;67064;-74
2022/05/14 06:53:30;;;;;;;;;;;;;;;23.65;67.08;96947.73;611848;232;64774;-74
2022/05/14 06:55:59;;;;;;;;;;;;;;;23.66;68.32;96956.56;611881;232;62966;-74
2022/05/14 06:58:28;;;;;;;;;;;;;;;23.66;67.30;96968.09;611829;232;65051;-74
2022/05/14 07:00:55;;;;;;;;;;;;;;;23.66;66.86;96976.14;611853;232;64933;-74
2022/05/14 07:08:54;;;;;;;;;;;;;;;23.66;66.27;96978.82;611841;232;67842;-74
2022/05/14 07:11:22;;;;;;;;;;;;;;;23.66;67.08;96988.77;611863;232;62602;-74
2022/05/14 07:13:51;;;;;;;;;;;;;;;23.66;67.29;96991.44;611868;232;67030;-74
2022/05/14 07:16:19;;;;;;;;;;;;;;;23.66;67.83;96991.44;611834;232;64972;-74
2022/05/14 07:18:46;;;;;;;;;;;;;;;23.65;66.61;97001.38;611864;232;63057;-74
2022/05/14 07:21:19;;;;;;;;;;;;;;;23.65;67.45;96996.02;611840;232;47907;-74
2022/05/14 07:23:51;;;;;;;;;;;;;;;23.67;67.53;96991.14;611934;231;48316;-73
2022/05/14 07:26:18;;;;;;;;;;;;;;;23.65;67.76;96993.33;611841;232;65389;-74
2022/05/14 07:28:46;;;;;;;;;;;;;;;23.66;68.24;96986.08;611851;232;67071;-75
2022/05/14 07:31:13;;;;;;;;;;;;;;;23.66;67.70;96986.88;611830;232;65099;-74
2022/05/14 07:33:40;;;;;;;;;;;;;;;23.66;67.16;96984.19;611835;232;63028;-74
2022/05/14 07:36:11;;;;;;;;;;;;;;;23.66;66.88;96986.88;611823;232;67784;-74
2022/05/14 07:38:39;;;;;;;;;;;;;;;23.67;67.30;96990.34;611854;232;66900;-74
2022/05/14 07:41:07;;;;;;;;;;;;;;;23.67;67.39;97001.08;611854;232;63100;-74
2022/05/14 07:43:36;;;;;;;;;;;;;;;23.67;67.38;96993.82;611839;232;64893;-74
2022/05/14 07:46:08;;;;;;;;;;;;;;;23.67;67.41;96993.03;611824;231;67112;-74
2022/05/14 07:48:37;;;;;;;;;;;;;;;23.66;67.71;96988.77;611829;230;65367;-74
2022/05/14 07:51:05;;;;;;;;;;;;;;;23.66;66.65;96992.23;611866;232;64528;-74
2022/05/14 07:53:33;;;;;;;;;;;;;;;23.67;68.08;96993.82;611842;232;64897;-74
2022/05/14 07:56:02;;;;;;;;;;;;;;;23.67;66.19;96998.39;611810;232;65828;-74
2022/05/14 07:58:29;;;;;;;;;;;;;;;23.67;68.71;97001.88;611851;232;67379;-74
2022/05/14 08:00:57;;;;;;;;;;;;;;;23.66;68.20;97013.70;611782;232;64936;-74
2022/05/14 08:03:27;;;;;;;;;;;;;;;23.66;67.46;97029.80;611783;230;46589;-74
2022/05/14 08:05:55;;;;;;;;;;;;;;;23.69;70.62;97033.79;611859;232;67051;-74
2022/05/14 08:08:23;;;;;;;;;;;;;;;23.65;68.74;97030.89;611833;232;66866;-74
2022/05/14 08:10:51;;;;;;;;;;;;;;;23.65;68.87;97008.61;611820;232;65115;-74
2022/05/14 08:13:20;;;;;;;;;;;;;;;23.66;68.23;97007.54;611781;232;67024;-69
2022/05/14 08:15:49;;;;;;;;;;;;;;;23.66;67.66;97011.02;611847;232;66894;-69
2022/05/14 08:18:17;;;;;;;;;;;;;;;23.65;66.84;97008.61;611777;232;65394;-69
2022/05/14 08:20:46;;;;;;;;;;;;;;;23.66;67.95;96999.49;611786;232;67010;-69
2022/05/14 08:26:00;;;;;;;;;;;;;;;23.67;67.05;97017.97;611754;232;65411;-70
2022/05/14 08:28:29;;;;;;;;;;;;;;;23.66;66.87;97016.38;611796;231;67043;-69
2022/05/14 08:30:57;;;;;;;;;;;;;;;23.64;66.66;97013.18;611828;232;66958;-69
2022/05/14 08:33:25;;;;;;;;;;;;;;;23.67;68.76;96998.39;611768;232;65408;-70
2022/05/14 08:35:53;;;;;;;;;;;;;;;23.66;67.31;96994.92;611813;232;67127;-69
2022/05/14 08:38:23;;;;;;;;;;;;;;;23.65;68.29;96998.70;611797;232;66601;-70
2022/05/14 08:41:00;;;;;;;;;;;;;;;23.66;69.68;97005.65;611814;232;65442;-69
2022/05/14 08:43:35;;;;;;;;;;;;;;;23.65;66.80;97005.92;611857;232;64905;-69
2022/05/14 08:46:04;;;;;;;;;;;;;;;23.65;66.05;97006.75;611788;232;65013;-69
2022/05/14 08:48:37;;;;;;;;;;;;;;;23.65;67.40;97022.84;611774;231;63964;-70
2022/05/14 08:51:15;;;;;;;;;;;;;;;23.65;68.05;97017.48;611793;232;64584;-69
2022/05/14 08:53:44;;;;;;;;;;;;;;;23.66;67.30;97016.38;611577;232;67006;-69
2022/05/14 08:56:13;;;;;;;;;;;;;;;23.66;68.34;97012.91;611787;232;65257;-70
2022/05/14 08:58:48;;;;;;;;;;;;;;;23.65;68.08;97028.21;611873;232;67068;-69
2022/05/14 09:01:19;;;;;;;;;;;;;;;23.65;66.87;97020.16;611816;232;64382;-68
2022/05/14 09:03:46;;;;;;;;;;;;;;;23.67;70.00;97022.55;611827;231;63028;-68
2022/05/14 09:06:14;;;;;;;;;;;;;;;23.65;66.63;97033.58;611843;232;64277;-69
2022/05/14 09:08:41;;;;;;;;;;;;;;;23.66;66.92;97023.64;611828;232;66648;-68
2022/05/14 09:11:12;;;;;;;;;;;;;;;23.64;66.80;97021.23;611785;232;65506;-68
2022/05/14 09:13:44;;;;;;;;;;;;;;;23.64;67.32;97023.12;611646;232;67102;-68
2022/05/14 09:16:22;;;;;;;;;;;;;;;23.64;67.09;97028.48;611844;232;66689;-68
2022/05/14 09:18:51;;;;;;;;;;;;;;;23.65;67.17;97036.27;611813;232;65135;-68
2022/05/14 09:21:21;;;;;;;;;;;;;;;23.64;66.32;97036.53;611824;232;66908;-68
2022/05/14 09:23:53;;;;;;;;;;;;;;;23.64;66.88;97034.64;611847;232;64452;-68
2022/05/14 09:26:26;;;;;;;;;;;;;;;23.65;67.13;97038.94;611770;232;65778;-68
2022/05/14 09:28:55;;;;;;;;;;;;;;;23.64;66.91;97042.69;611873;232;64843;-68
2022/05/14 09:31:24;;;;;;;;;;;;;;;23.63;66.44;97034.95;611794;232;64522;-68
2022/05/14 09:33:53;;;;;;;;;;;;;;;23.64;67.74;97034.64;611807;229;65439;-68
2022/05/14 09:36:22;;;;;;;;;;;;;;;23.64;66.74;97026.59;611774;230;67027;-68
2022/05/14 09:38:51;;;;;;;;;;;;;;;23.64;67.49;97015.86;611789;232;64714;-68
2022/05/14 09:41:25;;;;;;;;;;;;;;;23.63;67.07;97011.59;611494;232;65156;-69
2022/05/14 09:43:51;;;;;;;;;;;;;;;23.64;67.70;97012.39;611389;232;66802;-69
2022/05/14 09:46:25;;;;;;;;;;;;;;;23.63;66.78;97008.91;611770;232;64792;-68
2022/05/14 09:48:55;;;;;;;;;;;;;;;23.64;67.00;96999.77;611800;232;65116;-68
2022/05/14 09:51:33;;;;;;;;;;;;;;;23.63;66.23;97005.44;611757;232;67969;-69
2022/05/14 09:54:11;;;;;;;;;;;;;;;23.62;66.93;97007.30;611807;232;64428;-68
2022/05/14 09:56:40;;;;;;;;;;;;;;;23.63;66.70;97008.91;611776;232;62973;-68
2022/05/14 09:59:10;;;;;;;;;;;;;;;23.64;67.40;97001.66;611682;232;67368;-68
2022/05/14 10:01:41;;;;;;;;;;;;;;;23.62;66.51;97001.93;611432;227;67331;-68
2022/05/14 10:04:18;;;;;;;;;;;;;;;23.63;66.67;97005.44;611638;231;65526;-69
2022/05/14 10:06:46;;;;;;;;;;;;;;;23.63;66.79;97003.55;612023;229;67006;-68
2022/05/14 10:09:19;;;;;;;;;;;;;;;23.62;67.02;97001.93;611808;231;67062;-68
2022/05/14 10:11:48;;;;;;;;;;;;;;;23.62;66.85;96995.77;611873;232;65411;-68
2022/05/14 10:14:22;;;;;;;;;;;;;;;23.61;67.36;96994.19;611382;232;67041;-68
2022/05/14 10:17:01;;;;;;;;;;;;;;;23.62;67.51;96998.45;611785;230;64925;-68
2022/05/14 10:19:31;;;;;;;;;;;;;;;23.61;67.64;96991.50;611856;232;65417;-68
2022/05/14 10:22:17;;;;;;;;;;;;;;;23.60;67.30;96989.89;611835;232;64524;-68
2022/05/14 10:27:37;;;;;;;;;;;;;;;23.62;67.41;96998.45;611809;232;62705;-71
2022/05/14 10:30:09;;;;;;;;;;;;;;;23.59;66.94;96991.78;611882;232;65272;-71
2022/05/14 10:32:37;;;;;;;;;;;;;;;23.60;68.55;96987.20;611789;232;64816;-69
2022/05/14 10:35:20;;;;;;;;;;;;;;;23.60;67.64;96981.84;611789;232;66093;-70
2022/05/14 10:37:52;;;;;;;;;;;;;;;23.59;67.98;96974.89;611580;232;64845;-70
2022/05/14 10:40:21;;;;;;;;;;;;;;;23.59;68.06;96982.94;611836;232;66755;-69
2022/05/14 10:42:50;;;;;;;;;;;;;;;23.59;67.16;96978.37;611846;232;63059;-70
2022/05/14 10:45:19;;;;;;;;;;;;;;;23.58;66.71;96967.95;611710;232;67055;-69
2022/05/14 10:47:49;;;;;;;;;;;;;;;23.60;67.75;96965.75;611807;232;66802;-69
2022/05/14 10:50:19;;;;;;;;;;;;;;;23.60;68.55;96973.80;611688;232;65435;-70
2022/05/14 10:52:48;;;;;;;;;;;;;;;23.59;67.82;96962.27;611804;232;65602;-68
2022/05/14 10:55:20;;;;;;;;;;;;;;;23.59;68.16;96964.16;611806;232;66929;-68
2022/05/14 10:57:49;;;;;;;;;;;;;;;23.59;67.70;96954.23;611814;232;65481;-68
2022/05/14 11:00:20;;;;;;;;;;;;;;;23.59;66.79;96953.43;611830;232;48256;-74
2022/05/14 11:02:55;;;;;;;;;;;;;;;23.59;66.56;96953.43;611813;231;66901;-74
2022/05/14 11:05:32;;;;;;;;;;;;;;;23.60;67.99;96941.60;611790;229;42711;-74
2022/05/14 11:08:07;;;;;;;;;;;;;;;23.59;67.83;96940.02;611850;232;67061;-74
2022/05/14 11:10:35;;;;;;;;;;;;;;;23.59;68.01;96934.66;611846;232;66971;-68
2022/05/14 11:13:14;;;;;;;;;;;;;;;23.58;67.69;96925.02;611814;232;63211;-68
2022/05/14 11:15:43;;;;;;;;;;;;;;;23.59;67.65;96926.61;611344;232;67060;-69
2022/05/14 11:18:15;;;;;;;;;;;;;;;23.58;67.90;96928.50;611748;232;67460;-69
2022/05/14 11:20:54;;;;;;;;;;;;;;;23.57;68.13;96921.55;611787;230;65145;-69
2022/05/14 11:23:22;;;;;;;;;;;;;;;23.58;67.60;96915.09;611652;230;67064;-69
2022/05/14 11:25:50;;;;;;;;;;;;;;;23.59;68.11;96910.52;611821;232;64931;-69
2022/05/14 11:28:20;;;;;;;;;;;;;;;23.57;67.40;96908.14;611371;232;63037;-69
2022/05/14 11:30:49;;;;;;;;;;;;;;;23.58;67.98;96903.56;611876;232;67026;-69
2022/05/14 11:33:31;;;;;;;;;;;;;;;23.58;68.72;96909.72;611718;230;64899;-69
2022/05/14 11:36:00;;;;;;;;;;;;;;;23.58;67.66;96907.04;611831;232;62995;-70
2022/05/14 11:38:29;;;;;;;;;;;;;;;23.58;68.22;96898.99;611829;232;64597;-70
2022/05/14 11:40:57;;;;;;;;;;;;;;;23.58;68.33;96893.63;611797;232;64687;-70
2022/05/14 11:43:30;;;;;;;;;;;;;;;23.57;67.84;96892.04;611817;232;65334;-70
2022/05/14 11:45:59;;;;;;;;;;;;;;;23.59;68.08;96889.05;611833;232;65542;-70
2022/05/14 11:48:28;;;;;;;;;;;;;;;23.58;68.52;96888.26;611666;232;66908;-70
2022/05/14 11:51:14;;;;;;;;;;;;;;;23.58;68.15;96877.53;611787;231;71682;-70
2022/05/14 11:53:43;;;;;;;;;;;;;;;23.56;67.62;96878.91;611807;232;67054;-70
2022/05/14 11:56:12;;;;;;;;;;;;;;;23.58;67.78;96880.21;611764;232;66832;-70
2022/05/14 11:58:41;;;;;;;;;;;;;;;23.58;68.10;96874.84;611743;232;65216;-70
2022/05/14 12:01:10;;;;;;;;;;;;;;;23.58;67.98;96869.48;611892;232;64874;-70
2022/05/14 12:03:40;;;;;;;;;;;;;;;23.58;67.68;96866.01;611560;228;66919;-70
2022/05/14 12:06:18;;;;;;;;;;;;;;;23.59;68.30;96868.38;610626;232;63048;-69
2022/05/14 12:08:53;;;;;;;;;;;;;;;23.58;68.25;96861.44;610593;232;67117;-69
2022/05/14 12:11:22;;;;;;;;;;;;;;;23.56;68.00;96860.92;610575;232;67069;-69
2022/05/14 12:14:10;;;;;;;;;;;;;;;23.58;68.04;96853.39;611150;232;65366;-69
2022/05/14 12:16:42;;;;;;;;;;;;;;;23.58;68.33;96847.23;611860;232;67086;-69
2022/05/14 12:19:11;;;;;;;;;;;;;;;23.58;68.07;96845.34;611781;232;66907;-69
2022/05/14 12:21:38;;;;;;;;;;;;;;;23.56;67.95;96836.78;611628;232;63037;-69
2022/05/14 12:24:06;;;;;;;;;;;;;;;23.57;68.69;96838.39;611793;232;64686;-69
2022/05/14 12:26:35;;;;;;;;;;;;;;;23.56;68.11;96826.05;611841;232;66703;-69
2022/05/14 12:29:04;;;;;;;;;;;;;;;23.57;67.43;96827.66;611865;232;65096;-69
2022/05/14 12:34:19;;;;;;;;;;;;;;;23.56;67.70;96828.73;611791;232;65244;-69
2022/05/14 12:36:48;;;;;;;;;;;;;;;23.58;68.79;96823.88;611805;232;63027;-69
2022/05/14 12:39:17;;;;;;;;;;;;;;;23.58;68.11;96825.77;611795;232;64840;-69
2022/05/14 12:41:46;;;;;;;;;;;;;;;23.57;68.30;96830.34;611814;232;64816;-69
2022/05/14 12:44:15;;;;;;;;;;;;;;;23.56;68.41;96820.69;611815;229;65417;-69
2022/05/14 12:46:44;;;;;;;;;;;;;;;23.56;68.61;96826.05;611842;232;65854;-75
2022/05/14 12:49:19;;;;;;;;;;;;;;;23.55;67.62;96815.63;611584;229;66946;-74
2022/05/14 12:51:49;;;;;;;;;;;;;;;23.56;68.29;96818.00;611891;232;65429;-74
2022/05/14 12:54:24;;;;;;;;;;;;;;;23.56;68.11;96817.22;611849;232;64536;-74
2022/05/14 12:56:53;;;;;;;;;;;;;;;23.56;68.04;96818.00;611603;232;66839;-69
2022/05/14 12:59:21;;;;;;;;;;;;;;;23.56;68.27;96818.00;611858;232;65285;-69
2022/05/14 13:01:49;;;;;;;;;;;;;;;23.55;67.38;96807.58;611805;229;67247;-69
2022/05/14 13:04:19;;;;;;;;;;;;;;;23.56;68.34;96806.48;611795;232;67099;-74
2022/05/14 13:06:46;;;;;;;;;;;;;;;23.55;68.77;96808.37;611859;232;65346;-74
2022/05/14 13:09:15;;;;;;;;;;;;;;;23.56;68.92;96803.80;611818;232;64923;-74
2022/05/14 13:11:47;;;;;;;;;;;;;;;23.55;69.29;96797.64;611803;230;67020;-74
2022/05/14 13:14:17;;;;;;;;;;;;;;;23.56;68.42;96793.07;611880;232;63216;-74
2022/05/14 13:16:46;;;;;;;;;;;;;;;23.55;68.72;96791.48;611824;230;66761;-74
2022/05/14 13:19:24;;;;;;;;;;;;;;;23.55;67.99;96789.59;611668;232;64442;-74
2022/05/14 13:21:53;;;;;;;;;;;;;;;23.55;68.35;96780.76;611857;232;63058;-74
2022/05/14 13:24:22;;;;;;;;;;;;;;;23.55;67.86;96778.87;611809;232;66731;-74
2022/05/14 13:26:50;;;;;;;;;;;;;;;23.55;68.67;96783.45;611856;232;66705;-74